Luga — C6DJ4 — position and weather

sailwx.info

Track history (hours):
 
Tides and Currents Weather Stations Pressure Air Temp Water Temp Dewpoint Dewpoint Depression Visibility Wind Speed Wind Dir Waves Ship Positions

Luga

Last reported at 2018-Jun-18 22:21 UTC. Time now 2018-Jun-19 22:01 UTC.
Position S 33°51' E 151°13'.

Length 170 m; draft 10.2 m.

Type: Cargo ship. MMSI: 311000692.

Date/timePositionNaut miles runAvg speedWind from/ knotsBaromVisibWave heightAir tempDewpointWater temp
2018-Jun-18 22:21S 33°51' E 151°13'2 6.4
2018-Jun-18 22:00S 33°51' E 151°16'4 7.1
2018-Jun-18 21:30S 33°50' E 151°20'2 4.5
2018-Jun-18 21:00S 33°51' E 151°23'1 1.9
2018-Jun-18 20:29S 33°50' E 151°24'2 5.0
2018-Jun-18 20:00S 33°49' E 151°26'1 1.6
2018-Jun-18 19:31S 33°49' E 151°26'1 2.5
2018-Jun-18 19:00S 33°50' E 151°26'1 2.5
2018-Jun-18 18:30S 33°52' E 151°26'1 2.3
2018-Jun-18 18:00S 33°53' E 151°26'2 4.1
2018-Jun-18 17:31S 33°51' E 151°27'2 3.4
2018-Jun-18 17:01S 33°50' E 151°29'1 2.4
2018-Jun-18 16:31S 33°51' E 151°28'1 2.3
2018-Jun-18 16:01S 33°52' E 151°27'1 2.0
2018-Jun-18 15:30S 33°52' E 151°26'2 4.7
2018-Jun-18 15:00S 33°50' E 151°27'2 4.3
2018-Jun-18 14:30S 33°48' E 151°27'3 6.4
2018-Jun-18 14:01S 33°47' E 151°31'3 6.0
2018-Jun-18 13:31S 33°45' E 151°34'3 5.6
2018-Jun-18 13:00S 33°43' E 151°36'3 5.9
2018-Jun-18 12:30S 33°41' E 151°38'3 5.5
2018-Jun-18 12:01S 33°39' E 151°40'3 5.9
2018-Jun-18 11:30S 33°36' E 151°42'28 6.6
2018-Jun-18 07:18S 33°16' E 152°05'3 6.7
2018-Jun-18 06:53S 33°14' E 152°07'3 7.1
2018-Jun-18 06:30S 33°12' E 152°09'4 7.3
2018-Jun-18 06:00S 33°09' E 152°12'4 8.0
2018-Jun-18 05:30S 33°06' E 152°15'5 9.5
2018-Jun-18 05:00S 33°03' E 152°19'4 8.9
2018-Jun-18 04:30S 32°59' E 152°22'4 8.4
2018-Jun-18 04:00S 32°56' E 152°26'4 8.3
2018-Jun-18 03:30S 32°53' E 152°29'4 7.8
2018-Jun-18 02:58S 32°50' E 152°32'3 7.5
2018-Jun-18 02:31S 32°47' E 152°35'4 7.4
2018-Jun-18 02:00S 32°45' E 152°38'4 7.2
2018-Jun-18 01:30S 32°42' E 152°41'4 8.0
2018-Jun-18 01:01S 32°39' E 152°44'4 8.0
2018-Jun-18 00:30S 32°36' E 152°47'29212.7
2018-Jun-17 01:29S 27°50' E 153°57'  
2018-Jun-10 08:44S 32°47' E 152°36'413.7
2018-Jun-10 08:26S 32°50' E 152°33'613.7
2018-Jun-10 07:59S 32°54' E 152°28'613.5
2018-Jun-10 07:30S 32°59' E 152°23'713.6
2018-Jun-10 06:59S 33°04' E 152°17'713.5
2018-Jun-10 06:30S 33°09' E 152°12'913.5
2018-Jun-10 05:52S 33°16' E 152°05'3612.4
2018-Jun-10 02:57S 33°43' E 151°36'611.5
2018-Jun-10 02:24S 33°47' E 151°31'411.2
2018-Jun-10 02:00S 33°50' E 151°27'611.8
2018-Jun-10 01:30S 33°51' E 151°20'5 0.3
2018-Jun-09 04:06S 33°51' E 151°13'1 7.8
2018-Jun-09 03:55S 33°51' E 151°15'4 9.1
2018-Jun-09 03:30S 33°50' E 151°19'510.0
2018-Jun-09 03:01S 33°49' E 151°25'510.9
2018-Jun-09 02:31S 33°45' E 151°29'5 9.2
2018-Jun-09 02:00S 33°40' E 151°30'2614.3
2018-Jun-09 00:10S 33°16' E 151°43'916.0
2018-Jun-08 23:38S 33°08' E 151°46'216.0
2018-Jun-08 23:29S 33°06' E 151°47'1113.8
2018-Jun-08 22:41S 32°55' E 151°49'1 6.1
2018-Jun-08 22:30S 32°55' E 151°48'  
Track history (hours):
 
Tides and Currents Weather Stations Pressure Air Temp Water Temp Dewpoint Dewpoint Depression Visibility Wind Speed Wind Dir Waves Ship Positions

Luga

Last reported at 2018-Jun-18 22:21 UTC. Time now 2018-Jun-19 22:01 UTC.
Position S 33°51' E 151°13'.

Length 170 m; draft 10.2 m.

Type: Cargo ship. MMSI: 311000692.

Date/timePositionNaut miles runAvg speedWind from/ knotsBaromVisibWave heightAir tempDewpointWater temp
2018-Jun-18 22:21S 33°51' E 151°13'2 6.4
2018-Jun-18 22:00S 33°51' E 151°16'4 7.1
2018-Jun-18 21:30S 33°50' E 151°20'2 4.5
2018-Jun-18 21:00S 33°51' E 151°23'1 1.9
2018-Jun-18 20:29S 33°50' E 151°24'2 5.0
2018-Jun-18 20:00S 33°49' E 151°26'1 1.6
2018-Jun-18 19:31S 33°49' E 151°26'1 2.5
2018-Jun-18 19:00S 33°50' E 151°26'1 2.5
2018-Jun-18 18:30S 33°52' E 151°26'1 2.3
2018-Jun-18 18:00S 33°53' E 151°26'2 4.1
2018-Jun-18 17:31S 33°51' E 151°27'2 3.4
2018-Jun-18 17:01S 33°50' E 151°29'1 2.4
2018-Jun-18 16:31S 33°51' E 151°28'1 2.3
2018-Jun-18 16:01S 33°52' E 151°27'1 2.0
2018-Jun-18 15:30S 33°52' E 151°26'2 4.7
2018-Jun-18 15:00S 33°50' E 151°27'2 4.3
2018-Jun-18 14:30S 33°48' E 151°27'3 6.4
2018-Jun-18 14:01S 33°47' E 151°31'3 6.0
2018-Jun-18 13:31S 33°45' E 151°34'3 5.6
2018-Jun-18 13:00S 33°43' E 151°36'3 5.9
2018-Jun-18 12:30S 33°41' E 151°38'3 5.5
2018-Jun-18 12:01S 33°39' E 151°40'3 5.9
2018-Jun-18 11:30S 33°36' E 151°42'28 6.6
2018-Jun-18 07:18S 33°16' E 152°05'3 6.7
2018-Jun-18 06:53S 33°14' E 152°07'3 7.1
2018-Jun-18 06:30S 33°12' E 152°09'4 7.3
2018-Jun-18 06:00S 33°09' E 152°12'4 8.0
2018-Jun-18 05:30S 33°06' E 152°15'5 9.5
2018-Jun-18 05:00S 33°03' E 152°19'4 8.9
2018-Jun-18 04:30S 32°59' E 152°22'4 8.4
2018-Jun-18 04:00S 32°56' E 152°26'4 8.3
2018-Jun-18 03:30S 32°53' E 152°29'4 7.8
2018-Jun-18 02:58S 32°50' E 152°32'3 7.5
2018-Jun-18 02:31S 32°47' E 152°35'4 7.4
2018-Jun-18 02:00S 32°45' E 152°38'4 7.2
2018-Jun-18 01:30S 32°42' E 152°41'4 8.0
2018-Jun-18 01:01S 32°39' E 152°44'4 8.0
2018-Jun-18 00:30S 32°36' E 152°47'29212.7
2018-Jun-17 01:29S 27°50' E 153°57'  
2018-Jun-10 08:44S 32°47' E 152°36'413.7
2018-Jun-10 08:26S 32°50' E 152°33'613.7
2018-Jun-10 07:59S 32°54' E 152°28'613.5
2018-Jun-10 07:30S 32°59' E 152°23'713.6
2018-Jun-10 06:59S 33°04' E 152°17'713.5
2018-Jun-10 06:30S 33°09' E 152°12'913.5
2018-Jun-10 05:52S 33°16' E 152°05'3612.4
2018-Jun-10 02:57S 33°43' E 151°36'611.5
2018-Jun-10 02:24S 33°47' E 151°31'411.2
2018-Jun-10 02:00S 33°50' E 151°27'611.8
2018-Jun-10 01:30S 33°51' E 151°20'5 0.3
2018-Jun-09 04:06S 33°51' E 151°13'1 7.8
2018-Jun-09 03:55S 33°51' E 151°15'4 9.1
2018-Jun-09 03:30S 33°50' E 151°19'510.0
2018-Jun-09 03:01S 33°49' E 151°25'510.9
2018-Jun-09 02:31S 33°45' E 151°29'5 9.2
2018-Jun-09 02:00S 33°40' E 151°30'2614.3
2018-Jun-09 00:10S 33°16' E 151°43'916.0
2018-Jun-08 23:38S 33°08' E 151°46'216.0
2018-Jun-08 23:29S 33°06' E 151°47'1113.8
2018-Jun-08 22:41S 32°55' E 151°49'1 6.1
2018-Jun-08 22:30S 32°55' E 151°48'  

Dump ship's entire track history